Weather at Warner Corporate Center East Helipad

Public forecast

Using degrees Fahrenheit for public forecast. Weather courtesy of forecast.io.

Closest aviation weather report (METAR) to Warner Corporate Center East Helipad

Closest report is Van Nuys Airport, 5.4 nm (10.1 km) ENE. Retrieved 2022/01/17 03:51 UTC (1 hour ago):

KVNY 170351Z 00000KT 10SM BKN075 18/M01 A3003 RMK AO2 SLP165 T01831006

Closest aviation forecast (TAF) to Warner Corporate Center East Helipad

Closest forecast is Van Nuys Airport, 5.4 nm (10.1 km) ENE. Retrieved 2022-01-17 00:45 UTC (4 hours ago):

TAF KVNY 162342Z 1700/1724 15006KT P6SM BKN080 FM170300 VRB03KT P6SM BKN080 FM171400 VRB03KT P6SM BKN040 FM172100 15006KT P6SM BKN040 PROB30 1721/1724 -SHRA